Time;durP1;ratioP1;P1;durP2;ratioP2;P2;SDS_P1;SDS_P2;PMS_P1;PMS_P2;Temp;Humidity;BMP_temperature;BMP_pressure;BME280_temperature;BME280_humidity;BME280_pressure;Samples;Min_cycle;Max_cycle;Signal;HPM_P1;HPM_P2
2022/05/22 00:00:18;;;;;;;2.57;2.37;;;11.70;76.90;;;;;;5109431;28;20450;-58
2022/05/22 00:02:44;;;;;;;2.07;1.97;;;11.60;77.20;;;;;;5110251;28;20430;-56
2022/05/22 00:05:11;;;;;;;2.17;2.07;;;11.60;78.60;;;;;;5102698;28;20438;-59
2022/05/22 00:07:37;;;;;;;2.00;1.73;;;11.60;79.40;;;;;;5110280;28;20270;-58
2022/05/22 00:10:04;;;;;;;2.10;1.90;;;11.60;79.60;;;;;;5116469;27;20918;-58
2022/05/22 00:12:30;;;;;;;4.87;1.97;;;11.50;80.10;;;;;;5115218;27;20533;-58
2022/05/22 00:14:56;;;;;;;1.97;1.80;;;11.50;81.10;;;;;;5107677;28;20446;-59
2022/05/22 00:17:22;;;;;;;5.10;2.40;;;11.40;82.10;;;;;;5111577;27;20161;-57
2022/05/22 00:19:47;;;;;;;6.83;1.90;;;11.30;84.40;;;;;;5113597;27;20174;-58
2022/05/22 00:22:13;;;;;;;8.93;2.03;;;11.30;86.30;;;;;;5107959;28;20446;-58
2022/05/22 00:24:39;;;;;;;6.80;1.90;;;11.30;87.40;;;;;;5104191;28;20371;-58
2022/05/22 00:27:06;;;;;;;3.50;2.13;;;11.30;88.70;;;;;;5096887;27;20422;-58
2022/05/22 00:29:32;;;;;;;2.30;2.10;;;11.30;89.20;;;;;;5113590;27;20176;-58
2022/05/22 00:31:58;;;;;;;3.73;2.27;;;11.30;88.60;;;;;;5115043;27;20449;-58
2022/05/22 00:34:24;;;;;;;2.13;1.93;;;11.30;89.00;;;;;;5112690;27;20822;-58
2022/05/22 00:36:50;;;;;;;1.90;1.80;;;11.20;90.00;;;;;;5112038;27;20264;-58
2022/05/22 00:39:16;;;;;;;4.30;1.90;;;11.20;90.20;;;;;;5107832;27;20861;-58
2022/05/22 00:41:48;;;;;;;2.03;1.93;;;11.20;90.40;;;;;;5111329;27;20216;-58
2022/05/22 00:44:14;;;;;;;1.90;1.70;;;11.10;90.70;;;;;;5115270;27;20451;-59
2022/05/22 00:46:40;;;;;;;2.77;1.87;;;11.10;91.10;;;;;;5097631;28;20427;-59
2022/05/22 00:49:34;;;;;;;4.23;2.03;;;11.10;91.50;;;;;;5111783;27;20191;-58
2022/05/22 00:52:23;;;;;;;1.87;1.77;;;11.10;91.10;;;;;;5096783;27;20210;-59
2022/05/22 00:54:58;;;;;;;5.10;2.30;;;11.00;91.30;;;;;;5108868;28;20620;-59
2022/05/22 00:57:45;;;;;;;3.23;2.03;;;11.00;91.60;;;;;;5112232;27;20467;-59
2022/05/22 01:00:14;;;;;;;2.10;1.90;;;11.00;92.40;;;;;;5087913;28;20431;-59
2022/05/22 01:05:24;;;;;;;2.17;2.07;;;10.90;92.50;;;;;;5110232;28;20421;-59
2022/05/22 01:07:51;;;;;;;2.30;1.97;;;10.90;92.80;;;;;;5109210;28;20423;-61
2022/05/22 01:10:19;;;;;;;2.80;1.80;;;10.90;92.70;;;;;;5110918;27;20226;-59
2022/05/22 01:12:46;;;;;;;5.87;2.40;;;10.80;93.10;;;;;;5105419;28;20409;-61
2022/05/22 01:15:14;;;;;;;4.33;2.10;;;10.80;93.60;;;;;;5110247;28;20504;-59
2022/05/22 01:17:46;;;;;;;3.67;2.30;;;10.80;93.80;;;;;;5113853;27;20807;-58
2022/05/22 01:20:13;;;;;;;3.67;2.50;;;10.70;93.30;;;;;;5113868;27;21012;-58
2022/05/22 01:22:39;;;;;;;2.90;2.40;;;10.70;94.00;;;;;;5110367;28;20475;-59
2022/05/22 01:25:07;;;;;;;3.20;2.73;;;10.70;94.50;;;;;;5110353;28;20810;-59
2022/05/22 01:27:33;;;;;;;3.10;2.00;;;10.70;94.80;;;;;;5113352;27;20434;-59
2022/05/22 01:30:05;;;;;;;5.73;2.30;;;10.70;94.90;;;;;;5102129;28;20427;-59
2022/05/22 01:32:34;;;;;;;1.97;1.87;;;10.60;95.60;;;;;;5102784;28;20426;-59
2022/05/22 01:34:59;;;;;;;2.30;2.10;;;10.60;95.70;;;;;;5085578;28;20414;-58
2022/05/22 01:37:25;;;;;;;2.00;1.90;;;10.60;96.10;;;;;;5109977;27;20411;-59
2022/05/22 01:39:52;;;;;;;2.30;1.70;;;10.60;96.00;;;;;;5109790;28;20256;-59
2022/05/22 01:42:18;;;;;;;4.73;2.10;;;10.60;95.80;;;;;;5105413;27;20181;-58
2022/05/22 01:44:43;;;;;;;2.90;2.20;;;10.50;95.90;;;;;;5108986;28;21298;-59
2022/05/22 01:47:09;;;;;;;3.30;2.20;;;10.50;96.10;;;;;;5096073;28;20515;-60
2022/05/22 01:49:35;;;;;;;3.07;2.23;;;10.50;96.10;;;;;;5108469;28;20165;-59
2022/05/22 01:52:01;;;;;;;2.40;2.00;;;10.50;96.40;;;;;;5107086;28;20192;-59
2022/05/22 01:54:26;;;;;;;3.20;2.00;;;10.40;96.20;;;;;;5108707;27;20228;-59
2022/05/22 01:56:52;;;;;;;2.60;2.00;;;10.40;96.10;;;;;;5098169;28;20751;-58
2022/05/22 01:59:17;;;;;;;2.90;1.93;;;10.30;96.10;;;;;;5104667;28;20675;-59
2022/05/22 02:01:43;;;;;;;3.63;2.30;;;10.30;96.00;;;;;;5109124;28;20424;-59
2022/05/22 02:04:09;;;;;;;2.50;2.00;;;10.30;96.40;;;;;;5102045;28;20708;-58
2022/05/22 02:06:35;;;;;;;4.77;2.03;;;10.30;96.80;;;;;;5109548;27;20208;-59
2022/05/22 02:09:01;;;;;;;2.83;1.83;;;10.20;97.70;;;;;;5107867;28;20165;-58
2022/05/22 02:11:26;;;;;;;2.50;1.90;;;10.20;97.70;;;;;;5103587;28;21008;-59
2022/05/22 02:13:52;;;;;;;4.03;2.10;;;10.20;97.90;;;;;;5114555;27;20264;-58
2022/05/22 02:16:17;;;;;;;3.67;1.90;;;10.20;98.10;;;;;;5103832;27;20210;-59
2022/05/22 02:18:43;;;;;;;4.30;2.43;;;10.20;98.20;;;;;;5107271;27;20178;-59
2022/05/22 02:21:10;;;;;;;4.07;1.73;;;10.20;97.50;;;;;;5101286;28;20189;-59
2022/05/22 02:23:36;;;;;;;3.40;2.10;;;10.20;97.60;;;;;;5105376;27;21039;-57
2022/05/22 02:26:07;;;;;;;3.30;2.10;;;10.20;97.30;;;;;;5109032;28;20423;-60
2022/05/22 02:28:32;;;;;;;2.93;2.47;;;10.20;97.10;;;;;;5109045;28;20414;-59
2022/05/22 02:31:00;;;;;;;2.97;2.20;;;10.10;97.60;;;;;;5100573;28;20461;-59
2022/05/22 02:33:27;;;;;;;2.60;2.40;;;10.10;97.70;;;;;;5113689;27;20188;-58
2022/05/22 02:35:52;;;;;;;2.43;2.23;;;10.10;98.00;;;;;;5108293;28;20415;-58
2022/05/22 02:38:19;;;;;;;2.00;1.90;;;10.00;98.90;;;;;;5109447;28;20410;-59
2022/05/22 02:40:45;;;;;;;2.67;2.00;;;10.00;99.40;;;;;;5107064;27;20173;-59
2022/05/22 02:43:11;;;;;;;2.50;2.07;;;10.00;99.70;;;;;;5109208;28;20430;-59
2022/05/22 02:45:39;;;;;;;3.40;2.30;;;10.00;99.00;;;;;;5107310;28;20457;-59
2022/05/22 02:48:06;;;;;;;3.27;2.07;;;9.90;99.70;;;;;;5107473;27;20298;-59
2022/05/22 02:50:32;;;;;;;9.63;2.27;;;9.90;99.90;;;;;;5091413;27;20457;-58
2022/05/22 02:52:58;;;;;;;2.47;2.27;;;9.90;99.90;;;;;;5106279;28;20500;-59
2022/05/22 02:55:24;;;;;;;2.20;2.00;;;9.90;99.90;;;;;;5094878;28;20444;-58
2022/05/22 02:57:50;;;;;;;4.70;2.17;;;9.80;99.90;;;;;;5098287;27;20171;-59
2022/05/22 03:00:27;;;;;;;2.20;2.00;;;9.80;99.90;;;;;;5112091;27;20185;-58
2022/05/22 03:02:53;;;;;;;3.80;2.30;;;9.80;99.90;;;;;;5106715;27;20938;-58
2022/05/22 03:05:19;;;;;;;9.13;2.10;;;9.80;99.90;;;;;;5111705;27;20422;-58
2022/05/22 03:07:45;;;;;;;3.00;2.43;;;9.80;99.90;;;;;;5100598;28;20423;-58
2022/05/22 03:10:13;;;;;;;2.70;2.10;;;9.80;99.90;;;;;;5108942;27;20437;-59
2022/05/22 03:12:39;;;;;;;2.27;2.10;;;9.80;99.90;;;;;;5097801;28;20544;-58
2022/05/22 03:15:07;;;;;;;2.00;1.90;;;9.70;99.90;;;;;;5107870;28;20441;-58
2022/05/22 03:17:33;;;;;;;2.47;2.13;;;9.70;99.90;;;;;;5107038;28;21455;-58
2022/05/22 03:19:59;;;;;;;2.60;2.00;;;9.70;99.90;;;;;;5107576;28;20434;-58
2022/05/22 03:22:25;;;;;;;3.00;2.30;;;9.60;99.90;;;;;;5107806;28;20650;-59
2022/05/22 03:24:51;;;;;;;2.10;1.90;;;9.60;99.90;;;;;;5108453;28;20431;-59
2022/05/22 03:27:19;;;;;;;2.97;2.20;;;9.70;99.90;;;;;;5116365;28;20649;-59
2022/05/22 03:29:46;;;;;;;4.70;2.47;;;9.60;99.90;;;;;;5106710;28;20446;-59
2022/05/22 03:32:12;;;;;;;5.20;2.20;;;9.60;99.90;;;;;;5094105;28;20442;-59
2022/05/22 03:34:39;;;;;;;4.03;2.30;;;9.60;99.90;;;;;;5102540;28;20445;-58
2022/05/22 03:37:05;;;;;;;2.53;2.20;;;9.60;99.90;;;;;;5108020;28;20809;-59
2022/05/22 03:39:31;;;;;;;2.20;2.10;;;9.50;99.90;;;;;;5095065;28;20419;-59
2022/05/22 03:41:58;;;;;;;4.13;2.70;;;9.50;99.90;;;;;;5106149;28;20514;-58
2022/05/22 03:44:24;;;;;;;3.63;2.10;;;9.50;99.90;;;;;;5111437;28;20437;-59
2022/05/22 03:46:50;;;;;;;3.17;2.17;;;9.50;99.90;;;;;;5101751;28;20455;-58
2022/05/22 03:49:16;;;;;;;3.67;1.97;;;9.40;99.90;;;;;;5118464;27;20411;-58
2022/05/22 03:51:42;;;;;;;3.47;2.40;;;9.40;99.90;;;;;;5099983;27;20201;-60
2022/05/22 03:54:08;;;;;;;4.17;2.23;;;9.40;99.90;;;;;;5085653;28;20243;-60
2022/05/22 03:56:35;;;;;;;2.47;2.27;;;9.40;99.90;;;;;;5105546;28;20452;-59
2022/05/22 03:59:02;;;;;;;3.40;2.90;;;9.40;99.90;;;;;;5118845;27;20422;-58
2022/05/22 04:01:28;;;;;;;2.77;2.10;;;9.40;99.90;;;;;;5092471;28;20438;-59
2022/05/22 04:03:54;;;;;;;4.33;2.33;;;9.30;99.90;;;;;;5109859;27;20446;-59
2022/05/22 04:06:19;;;;;;;6.13;2.63;;;9.30;99.90;;;;;;5101455;28;20426;-59
2022/05/22 04:08:45;;;;;;;8.50;2.37;;;9.30;99.90;;;;;;5105853;28;20264;-59
2022/05/22 04:11:14;;;;;;;2.43;2.13;;;9.30;99.90;;;;;;5096194;27;20200;-58
2022/05/22 04:13:40;;;;;;;7.23;2.53;;;9.20;99.90;;;;;;5105971;27;20245;-58
2022/05/22 04:16:06;;;;;;;2.43;2.23;;;9.30;99.90;;;;;;5109361;27;20435;-58
2022/05/22 04:18:32;;;;;;;4.00;2.17;;;9.30;99.90;;;;;;5113488;27;20418;-59
2022/05/22 04:20:59;;;;;;;2.47;2.03;;;9.30;99.90;;;;;;5106556;28;20435;-59
2022/05/22 04:26:09;;;;;;;3.33;2.40;;;9.40;99.90;;;;;;5103599;28;20433;-57
2022/05/22 04:28:35;;;;;;;3.20;2.50;;;9.40;99.90;;;;;;5092304;28;20780;-58
2022/05/22 04:31:03;;;;;;;4.63;2.30;;;9.50;99.90;;;;;;5110409;28;20511;-58
2022/05/22 04:33:30;;;;;;;6.40;2.43;;;9.50;99.90;;;;;;5111884;27;20434;-57
2022/05/22 04:35:56;;;;;;;4.27;2.50;;;9.50;99.90;;;;;;5109519;28;20427;-58
2022/05/22 04:38:22;;;;;;;2.40;2.20;;;9.60;99.90;;;;;;5110574;28;20447;-58
2022/05/22 04:41:02;;;;;;;3.00;2.80;;;9.60;99.90;;;;;;5110665;28;20533;-59
2022/05/22 04:43:30;;;;;;;3.20;2.03;;;9.70;99.90;;;;;;5109646;27;20451;-59
2022/05/22 04:45:56;;;;;;;3.60;2.60;;;9.80;99.90;;;;;;5107949;27;20441;-59
2022/05/22 04:48:23;;;;;;;2.53;2.20;;;9.80;99.90;;;;;;5109458;28;20438;-59
2022/05/22 04:50:51;;;;;;;2.80;2.17;;;9.80;99.90;;;;;;5117418;27;20466;-59
2022/05/22 04:53:19;;;;;;;5.80;2.20;;;9.90;99.90;;;;;;5105227;28;20458;-59
2022/05/22 04:55:45;;;;;;;3.80;2.50;;;10.00;99.90;;;;;;5085838;28;20414;-59
2022/05/22 04:58:12;;;;;;;6.10;3.90;;;10.00;99.90;;;;;;5111429;28;20414;-59
2022/05/22 05:00:39;;;;;;;4.37;3.97;;;10.10;99.90;;;;;;5108630;28;20173;-58
2022/05/22 05:03:05;;;;;;;3.73;3.43;;;10.20;99.90;;;;;;5111303;27;21241;-60
2022/05/22 05:05:31;;;;;;;3.40;3.10;;;10.30;99.90;;;;;;5107414;28;20410;-58
2022/05/22 05:07:57;;;;;;;8.03;3.10;;;10.40;99.90;;;;;;5110932;28;20415;-59
2022/05/22 05:10:23;;;;;;;5.00;3.13;;;10.40;99.90;;;;;;5106056;28;20204;-58
2022/05/22 05:12:49;;;;;;;4.47;2.83;;;10.50;99.90;;;;;;5110595;27;20162;-59
2022/05/22 05:15:17;;;;;;;3.30;2.80;;;10.60;99.90;;;;;;5113149;27;20427;-59
2022/05/22 05:17:44;;;;;;;3.23;2.70;;;10.60;99.90;;;;;;5109317;27;20173;-58
2022/05/22 05:20:12;;;;;;;4.07;2.47;;;10.70;99.90;;;;;;5106808;27;20412;-59
2022/05/22 05:22:38;;;;;;;2.40;2.20;;;10.60;99.90;;;;;;5110527;27;20426;-58
2022/05/22 05:25:05;;;;;;;5.47;2.70;;;10.60;99.90;;;;;;5090854;28;21028;-59
2022/05/22 05:27:31;;;;;;;2.40;2.20;;;10.70;99.90;;;;;;5110731;28;20219;-59
2022/05/22 05:29:56;;;;;;;4.00;2.33;;;10.80;99.90;;;;;;5109273;28;20946;-59
2022/05/22 05:32:23;;;;;;;6.10;2.17;;;10.90;99.90;;;;;;5110137;28;20232;-59
2022/05/22 05:34:57;;;;;;;2.47;2.20;;;10.90;99.90;;;;;;5111033;27;20185;-59
2022/05/22 05:37:23;;;;;;;5.00;3.10;;;11.00;99.90;;;;;;5106602;28;20505;-59
2022/05/22 05:39:49;;;;;;;4.93;2.33;;;11.10;99.90;;;;;;5109797;28;20497;-59
2022/05/22 05:42:14;;;;;;;4.63;2.73;;;11.20;99.90;;;;;;5112469;27;20423;-58
2022/05/22 05:44:40;;;;;;;2.50;2.30;;;11.20;99.90;;;;;;5109949;28;20665;-61
2022/05/22 05:47:08;;;;;;;2.30;2.10;;;11.30;99.40;;;;;;5092351;28;20169;-58
2022/05/22 05:49:36;;;;;;;3.43;2.50;;;11.40;99.20;;;;;;5108610;28;20422;-59
2022/05/22 05:52:02;;;;;;;6.10;2.83;;;11.50;99.60;;;;;;5097238;28;21145;-59
2022/05/22 05:54:28;;;;;;;2.53;2.33;;;11.60;99.00;;;;;;5110286;28;20987;-58
2022/05/22 05:56:53;;;;;;;5.97;2.30;;;11.70;98.20;;;;;;5107765;27;20434;-58
2022/05/22 05:59:19;;;;;;;3.43;2.60;;;11.80;98.00;;;;;;5101829;28;20185;-59
2022/05/22 06:01:45;;;;;;;3.10;2.80;;;11.90;98.50;;;;;;5108040;27;20584;-59
2022/05/22 06:04:10;;;;;;;4.80;2.80;;;12.00;98.20;;;;;;5113554;27;20279;-60
2022/05/22 06:06:36;;;;;;;5.20;2.50;;;12.10;97.60;;;;;;5110604;27;20234;-59
2022/05/22 06:09:02;;;;;;;7.90;2.57;;;12.20;96.80;;;;;;5110156;27;20172;-58
2022/05/22 06:11:28;;;;;;;3.40;2.50;;;12.30;96.90;;;;;;5108412;28;20608;-58
2022/05/22 06:13:54;;;;;;;4.80;2.40;;;12.40;96.70;;;;;;5103204;27;20446;-65
2022/05/22 06:16:20;;;;;;;5.00;2.47;;;12.50;95.80;;;;;;5113119;27;20314;-60
2022/05/22 06:18:45;;;;;;;2.40;2.20;;;12.60;94.80;;;;;;5104479;28;20902;-59
2022/05/22 06:21:15;;;;;;;3.50;2.37;;;12.60;95.30;;;;;;5108961;27;20880;-58
2022/05/22 06:23:40;;;;;;;3.30;2.73;;;12.80;94.70;;;;;;5112328;27;20192;-58
2022/05/22 06:26:11;;;;;;;3.40;2.60;;;12.80;93.80;;;;;;5114138;27;20768;-58
2022/05/22 06:28:37;;;;;;;5.60;2.20;;;13.00;93.70;;;;;;5107033;28;20293;-58
2022/05/22 06:31:04;;;;;;;5.47;2.60;;;13.10;95.80;;;;;;5111089;27;20595;-59
2022/05/22 06:33:31;;;;;;;2.70;2.03;;;13.20;94.90;;;;;;5107842;28;20257;-59
2022/05/22 06:35:57;;;;;;;5.40;2.80;;;13.40;94.80;;;;;;5101732;27;20430;-60
2022/05/22 06:41:08;;;;;;;3.00;2.50;;;13.70;92.30;;;;;;5109929;27;20783;-60
2022/05/22 06:43:34;;;;;;;3.13;2.77;;;13.80;92.10;;;;;;5109173;28;20450;-59
2022/05/22 06:46:00;;;;;;;6.13;2.80;;;13.90;92.70;;;;;;5107483;28;20431;-59
2022/05/22 06:48:26;;;;;;;3.03;2.70;;;14.10;93.60;;;;;;5109341;28;20188;-60
2022/05/22 06:50:52;;;;;;;2.90;2.43;;;14.30;92.70;;;;;;5110899;27;20490;-55
2022/05/22 06:53:18;;;;;;;2.90;2.60;;;14.40;91.30;;;;;;5087654;28;20284;-59
2022/05/22 06:55:43;;;;;;;5.60;2.90;;;14.60;90.00;;;;;;5107151;28;20638;-59
2022/05/22 06:58:09;;;;;;;5.33;2.60;;;14.60;82.40;;;;;;5091307;28;20180;-60
2022/05/22 07:00:35;;;;;;;5.40;3.00;;;14.80;81.60;;;;;;5107823;27;20254;-59
2022/05/22 07:03:01;;;;;;;6.83;3.10;;;14.90;80.80;;;;;;5102719;27;20188;-58
2022/05/22 07:05:27;;;;;;;2.83;2.40;;;15.10;79.40;;;;;;5115090;27;20482;-58
2022/05/22 07:07:53;;;;;;;3.03;2.20;;;15.30;78.10;;;;;;5102706;28;20177;-59
2022/05/22 07:10:19;;;;;;;3.87;2.50;;;15.40;74.50;;;;;;5108811;28;20180;-59
2022/05/22 07:12:44;;;;;;;3.03;2.70;;;15.60;73.60;;;;;;5106245;28;20173;-59
2022/05/22 07:15:11;;;;;;;6.70;2.80;;;15.70;72.10;;;;;;5108971;28;22205;-59
2022/05/22 07:17:40;;;;;;;3.13;2.90;;;15.90;71.30;;;;;;5112765;28;20230;-59
2022/05/22 07:20:06;;;;;;;3.20;2.17;;;16.00;70.30;;;;;;5115853;27;20422;-59
2022/05/22 07:22:32;;;;;;;2.77;2.57;;;16.10;70.60;;;;;;5108088;27;20483;-59
2022/05/22 07:24:57;;;;;;;2.97;2.50;;;16.10;70.50;;;;;;5114791;28;20944;-60
2022/05/22 07:27:23;;;;;;;4.10;2.10;;;16.30;70.60;;;;;;5115397;27;20169;-60
2022/05/22 07:29:49;;;;;;;6.53;2.33;;;16.40;69.20;;;;;;5112626;27;20180;-60
2022/05/22 07:32:15;;;;;;;3.13;2.13;;;16.50;67.70;;;;;;5112260;27;20208;-59
2022/05/22 07:34:42;;;;;;;4.13;2.60;;;16.60;66.60;;;;;;5094570;27;20201;-58
2022/05/22 07:37:09;;;;;;;4.80;2.17;;;16.80;65.10;;;;;;5103781;27;20422;-58
2022/05/22 07:39:35;;;;;;;8.30;2.27;;;16.90;64.50;;;;;;5103576;27;20434;-58
2022/05/22 07:42:01;;;;;;;4.13;2.43;;;17.10;64.70;;;;;;5105863;28;20435;-59
2022/05/22 07:44:27;;;;;;;5.13;2.13;;;17.20;64.30;;;;;;5108038;28;20511;-58
2022/05/22 07:46:52;;;;;;;3.30;2.00;;;17.30;63.20;;;;;;5108554;27;20320;-59
2022/05/22 07:52:08;;;;;;;6.50;2.50;;;17.50;62.80;;;;;;5107683;27;20239;-58
2022/05/22 07:54:37;;;;;;;2.97;2.20;;;17.60;63.00;;;;;;5105247;27;20462;-58
2022/05/22 07:57:03;;;;;;;8.37;2.63;;;17.70;64.30;;;;;;5114887;28;20538;-58
2022/05/22 07:59:29;;;;;;;2.60;2.10;;;17.70;63.80;;;;;;5111705;28;20431;-58
2022/05/22 08:01:55;;;;;;;2.93;2.27;;;17.80;64.20;;;;;;5106240;28;20429;-57
2022/05/22 08:04:21;;;;;;;5.37;2.30;;;17.90;64.00;;;;;;5112736;27;20215;-58
2022/05/22 08:06:46;;;;;;;2.80;2.13;;;18.00;64.20;;;;;;5115234;27;21085;-58
2022/05/22 08:09:12;;;;;;;5.00;2.50;;;18.10;63.70;;;;;;5106783;28;20692;-59
2022/05/22 08:11:37;;;;;;;2.70;2.37;;;18.20;62.20;;;;;;5109920;28;20273;-58
2022/05/22 08:14:03;;;;;;;2.50;2.10;;;18.40;62.00;;;;;;5107988;27;20192;-58
2022/05/22 08:16:29;;;;;;;2.17;1.80;;;18.50;61.30;;;;;;5105046;28;20272;-58
2022/05/22 08:18:54;;;;;;;2.23;1.73;;;18.60;61.80;;;;;;5100741;27;20169;-59
2022/05/22 08:21:20;;;;;;;3.33;1.90;;;18.60;61.40;;;;;;5105945;27;20184;-58
2022/05/22 08:23:45;;;;;;;3.80;2.00;;;18.70;60.80;;;;;;5099260;27;20291;-58
2022/05/22 08:26:11;;;;;;;5.23;2.27;;;18.70;60.10;;;;;;5105767;27;20659;-58
2022/05/22 08:28:37;;;;;;;2.50;1.73;;;18.80;59.80;;;;;;5109019;27;20173;-58
2022/05/22 08:31:04;;;;;;;1.83;1.60;;;18.80;59.00;;;;;;5107143;27;20193;-58
2022/05/22 08:33:30;;;;;;;3.30;1.67;;;18.80;58.30;;;;;;5105603;28;20193;-61
2022/05/22 08:35:56;;;;;;;2.70;1.70;;;18.70;56.60;;;;;;5096638;28;20450;-58
2022/05/22 08:38:21;;;;;;;1.73;1.63;;;18.70;56.30;;;;;;5114352;27;20673;-60
2022/05/22 08:41:16;;;;;;;1.87;1.67;;;18.70;56.00;;;;;;5109176;27;20497;-58
2022/05/22 08:43:46;;;;;;;3.53;1.60;;;18.70;56.70;;;;;;5108853;27;20200;-60
2022/05/22 08:46:29;;;;;;;4.27;1.67;;;18.70;56.50;;;;;;5090246;28;20579;-58
2022/05/22 08:48:58;;;;;;;1.80;1.63;;;18.80;57.20;;;;;;5105804;28;20487;-58
2022/05/22 08:51:41;;;;;;;4.73;2.33;;;18.90;56.90;;;;;;5102067;27;20463;-57
2022/05/22 08:54:25;;;;;;;4.63;1.90;;;19.00;56.50;;;;;;5095936;27;20799;-57
2022/05/22 08:59:41;;;;;;;2.70;1.80;;;19.20;55.20;;;;;;5100523;27;20446;-58
2022/05/22 09:02:33;;;;;;;5.97;2.10;;;19.20;54.10;;;;;;5105503;27;20427;-58
2022/05/22 09:05:05;;;;;;;4.03;2.17;;;19.30;55.40;;;;;;5089588;28;20472;-57
2022/05/22 09:07:54;;;;;;;2.80;1.53;;;19.50;56.20;;;;;;5109092;28;20433;-58
2022/05/22 09:10:22;;;;;;;5.17;1.90;;;19.70;56.20;;;;;;5101882;27;20431;-57
2022/05/22 09:13:09;;;;;;;3.37;1.90;;;20.00;55.70;;;;;;5105910;27;20507;-58
2022/05/22 09:16:01;;;;;;;3.63;1.70;;;20.10;54.80;;;;;;5106662;27;20934;-59
2022/05/22 09:18:48;;;;;;;3.10;1.80;;;20.30;54.40;;;;;;5093100;28;20407;-58
2022/05/22 09:21:45;;;;;;;2.70;1.70;;;20.40;54.90;;;;;;5108013;28;20506;-57
2022/05/22 09:24:38;;;;;;;2.83;1.40;;;20.50;54.80;;;;;;5068029;28;20454;-57
2022/05/22 09:27:24;;;;;;;2.70;1.90;;;20.70;54.40;;;;;;5104243;28;20433;-58
2022/05/22 09:30:08;;;;;;;5.60;2.70;;;20.80;53.30;;;;;;5115251;27;20411;-57
2022/05/22 09:33:11;;;;;;;4.00;1.97;;;21.00;52.90;;;;;;5072587;27;20454;-58
2022/05/22 09:35:46;;;;;;;2.73;1.63;;;21.20;51.40;;;;;;5105528;28;20874;-57
2022/05/22 09:38:14;;;;;;;2.10;1.57;;;21.30;49.20;;;;;;5106302;28;20502;-57
2022/05/22 09:40:49;;;;;;;3.23;1.97;;;21.40;48.00;;;;;;5108707;28;20423;-59
2022/05/22 09:43:57;;;;;;;2.30;1.27;;;21.50;46.60;;;;;;5103444;27;20854;-58
2022/05/22 09:46:55;;;;;;;1.90;1.20;;;21.50;45.70;;;;;;5104455;27;20434;-58
2022/05/22 09:49:49;;;;;;;1.43;1.33;;;21.60;45.30;;;;;;5067294;27;20430;-58
2022/05/22 09:52:47;;;;;;;2.50;1.37;;;21.80;45.80;;;;;;5084377;28;20454;-58
2022/05/22 09:55:16;;;;;;;1.40;1.30;;;22.00;45.30;;;;;;5109558;27;20427;-58
2022/05/22 09:58:13;;;;;;;1.63;1.53;;;22.20;45.30;;;;;;5103237;27;20427;-57
2022/05/22 10:00:50;;;;;;;4.30;1.77;;;22.30;44.60;;;;;;5107336;27;20450;-58
2022/05/22 10:03:29;;;;;;;1.57;1.47;;;22.40;44.50;;;;;;5102957;27;20447;-58
2022/05/22 10:06:02;;;;;;;1.37;1.23;;;22.60;44.40;;;;;;5104086;27;20462;-58
2022/05/22 10:08:49;;;;;;;3.20;1.60;;;22.60;43.40;;;;;;5101723;28;20462;-58
2022/05/22 10:11:38;;;;;;;3.03;1.47;;;22.70;42.90;;;;;;5103867;28;20457;-58
2022/05/22 10:14:38;;;;;;;1.47;1.10;;;22.70;43.30;;;;;;5101070;28;20946;-58
2022/05/22 10:17:34;;;;;;;3.10;1.43;;;22.80;42.00;;;;;;5099740;27;20965;-59
2022/05/22 10:20:43;;;;;;;2.50;1.43;;;22.90;39.00;;;;;;5103425;27;20496;-58
2022/05/22 10:23:14;;;;;;;1.30;1.20;;;22.90;40.20;;;;;;5102561;28;20447;-59
2022/05/22 10:26:09;;;;;;;1.23;1.13;;;22.90;40.60;;;;;;5100798;28;20431;-58
2022/05/22 10:28:40;;;;;;;1.20;1.00;;;23.20;40.50;;;;;;5103745;28;20854;-57
2022/05/22 10:31:36;;;;;;;2.63;1.00;;;23.40;39.70;;;;;;5102913;28;20446;-58
2022/05/22 10:34:36;;;;;;;1.30;1.20;;;23.50;36.60;;;;;;5100988;28;21125;-58
2022/05/22 10:37:14;;;;;;;1.30;1.13;;;23.60;34.60;;;;;;5101922;27;20973;-58
2022/05/22 10:39:39;;;;;;;5.40;1.77;;;23.60;35.70;;;;;;5098719;27;20454;-57
2022/05/22 10:42:46;;;;;;;1.20;1.10;;;23.70;37.90;;;;;;5093324;27;20956;-59
2022/05/22 10:45:32;;;;;;;5.20;1.53;;;23.80;38.30;;;;;;5105134;27;20177;-57
2022/05/22 10:48:25;;;;;;;1.33;1.13;;;23.90;37.30;;;;;;5104713;28;20911;-57
2022/05/22 10:51:03;;;;;;;2.90;1.60;;;23.90;36.90;;;;;;5101302;27;20458;-59
2022/05/22 10:53:37;;;;;;;2.13;1.33;;;24.00;38.30;;;;;;5103594;28;20526;-58
2022/05/22 10:56:05;;;;;;;2.67;1.40;;;24.00;38.20;;;;;;5114015;27;20422;-57
2022/05/22 10:58:35;;;;;;;2.07;1.57;;;24.00;39.00;;;;;;5115808;27;20847;-57
2022/05/22 11:01:14;;;;;;;3.07;1.33;;;24.10;41.40;;;;;;5097837;28;20510;-57
2022/05/22 11:03:40;;;;;;;2.60;1.70;;;24.10;43.20;;;;;;5102550;27;20493;-58
2022/05/22 11:06:17;;;;;;;2.60;1.40;;;24.10;43.90;;;;;;5104159;28;20450;-60
2022/05/22 11:08:55;;;;;;;3.17;2.57;;;24.20;44.70;;;;;;5102348;28;20207;-59
2022/05/22 11:11:47;;;;;;;2.40;1.67;;;24.30;46.60;;;;;;5107334;27;20454;-58
2022/05/22 11:14:16;;;;;;;2.13;1.83;;;24.40;45.70;;;;;;5093191;28;20477;-57
2022/05/22 11:16:42;;;;;;;1.80;1.70;;;24.40;45.50;;;;;;5093650;28;20427;-59
2022/05/22 11:19:07;;;;;;;7.10;4.20;;;24.30;45.10;;;;;;5104623;28;20552;-58
2022/05/22 11:21:48;;;;;;;7.43;2.57;;;24.20;45.70;;;;;;5094508;28;20542;-57
2022/05/22 11:24:36;;;;;;;3.70;2.03;;;24.20;46.20;;;;;;5103076;28;20224;-56
2022/05/22 11:27:08;;;;;;;2.33;1.97;;;24.20;46.70;;;;;;5108317;28;20410;-57
2022/05/22 11:29:52;;;;;;;1.80;1.50;;;24.30;46.70;;;;;;5103894;28;20430;-59
2022/05/22 11:32:37;;;;;;;2.40;1.70;;;24.30;45.20;;;;;;5101293;28;20490;-57
2022/05/22 11:35:32;;;;;;;3.17;1.40;;;24.10;45.30;;;;;;5098093;28;20457;-58
2022/05/22 11:38:16;;;;;;;3.83;1.50;;;24.00;45.40;;;;;;5080343;28;21511;-56
2022/05/22 11:40:48;;;;;;;1.47;1.27;;;23.90;45.60;;;;;;5101476;28;20419;-57
2022/05/22 11:43:36;;;;;;;2.33;1.70;;;23.90;45.60;;;;;;5106843;28;20580;-56
2022/05/22 11:46:29;;;;;;;2.60;2.40;;;23.90;45.40;;;;;;5109287;28;20545;-57
2022/05/22 11:49:09;;;;;;;4.87;1.87;;;23.90;45.00;;;;;;5097850;28;20416;-56
2022/05/22 11:51:54;;;;;;;1.70;1.60;;;23.90;45.20;;;;;;5101460;28;20454;-54
2022/05/22 11:54:51;;;;;;;5.43;1.80;;;23.90;44.30;;;;;;5100815;28;20442;-55
2022/05/22 11:57:41;;;;;;;1.50;1.37;;;24.00;45.50;;;;;;5093251;28;20434;-57
2022/05/22 12:00:23;;;;;;;2.10;1.90;;;24.20;44.40;;;;;;5096433;28;20514;-55
2022/05/22 12:02:51;;;;;;;3.10;1.80;;;24.30;44.20;;;;;;5092475;28;20430;-60
2022/05/22 12:05:31;;;;;;;1.60;1.50;;;24.40;43.30;;;;;;5097123;28;22279;-59
2022/05/22 12:08:25;;;;;;;1.80;1.67;;;24.50;45.60;;;;;;5106214;27;20426;-61
2022/05/22 12:11:02;;;;;;;1.80;1.70;;;24.80;46.00;;;;;;5106232;27;20548;-58
2022/05/22 12:13:52;;;;;;;1.43;1.33;;;25.10;46.20;;;;;;5104552;27;20644;-58
2022/05/22 12:16:26;;;;;;;3.07;1.67;;;25.30;46.70;;;;;;5103332;28;20968;-60
2022/05/22 12:19:10;;;;;;;1.77;1.67;;;25.60;45.00;;;;;;5106341;27;20961;-59
2022/05/22 12:22:03;;;;;;;4.60;1.80;;;26.00;45.00;;;;;;5105849;27;20438;-59
2022/05/22 12:24:52;;;;;;;3.67;1.40;;;26.40;44.70;;;;;;5104716;27;20530;-58
2022/05/22 12:27:29;;;;;;;2.47;1.40;;;26.70;43.90;;;;;;5108621;28;20468;-58
2022/05/22 12:30:25;;;;;;;2.03;1.30;;;27.10;43.20;;;;;;5103918;28;20426;-58
2022/05/22 12:32:57;;;;;;;2.10;1.47;;;27.30;42.30;;;;;;5107125;28;20461;-59
2022/05/22 12:35:26;;;;;;;1.63;1.50;;;27.60;41.70;;;;;;5109816;27;20418;-61
2022/05/22 12:37:56;;;;;;;4.40;1.60;;;27.70;42.00;;;;;;5103031;28;21084;-60
2022/05/22 12:40:46;;;;;;;2.80;1.80;;;27.60;38.80;;;;;;5113317;27;20432;-61
2022/05/22 12:43:16;;;;;;;1.70;1.60;;;27.40;40.00;;;;;;5104120;28;20942;-61
2022/05/22 12:45:42;;;;;;;2.13;1.60;;;27.10;38.90;;;;;;5087996;28;20588;-62
2022/05/22 12:48:32;;;;;;;3.10;1.70;;;26.80;40.20;;;;;;5105517;27;20448;-61
2022/05/22 12:51:22;;;;;;;1.60;1.50;;;26.50;40.50;;;;;;5090486;28;20947;-60
2022/05/22 12:53:54;;;;;;;5.30;1.33;;;26.10;40.40;;;;;;5100446;28;20879;-60
2022/05/22 12:56:31;;;;;;;1.30;1.20;;;25.80;40.80;;;;;;5111133;27;20427;-60
2022/05/22 12:59:03;;;;;;;2.70;2.00;;;25.60;41.40;;;;;;5102712;28;20473;-60
2022/05/22 13:01:31;;;;;;;2.47;1.67;;;25.70;42.20;;;;;;5112429;27;20941;-60
2022/05/22 13:04:06;;;;;;;1.90;1.60;;;25.70;42.20;;;;;;5109473;27;20461;-61
2022/05/22 13:06:43;;;;;;;3.67;1.53;;;25.90;41.00;;;;;;5108271;27;20565;-60
2022/05/22 13:09:40;;;;;;;5.90;1.53;;;26.00;41.10;;;;;;5098060;27;20978;-60
2022/05/22 13:12:18;;;;;;;2.10;1.47;;;25.90;39.60;;;;;;5114281;27;20470;-60
2022/05/22 13:15:15;;;;;;;1.53;1.43;;;25.90;40.80;;;;;;5101079;28;20438;-60
2022/05/22 13:17:51;;;;;;;1.67;1.50;;;25.90;43.00;;;;;;5113695;27;20422;-60
2022/05/22 13:20:34;;;;;;;1.73;1.33;;;26.00;42.50;;;;;;5108301;27;20393;-60
2022/05/22 13:23:07;;;;;;;3.83;2.27;;;26.00;41.00;;;;;;5099402;28;20488;-60
2022/05/22 13:25:42;;;;;;;4.67;2.03;;;26.00;41.10;;;;;;5106771;27;20426;-60